Time;durP1;ratioP1;P1;durP2;ratioP2;P2;SDS_P1;SDS_P2;PMS_P1;PMS_P2;Temp;Humidity;BMP_temperature;BMP_pressure;BME280_temperature;BME280_humidity;BME280_pressure;Samples;Min_cycle;Max_cycle;Signal;HPM_P1;HPM_P2
2023/04/05 00:01:31;;;;;;;15.50;7.55;;;;;;;14.82;52.18;99486.06;4913774;29;20127;-68
2023/04/05 00:03:59;;;;;;;16.00;7.75;;;;;;;14.88;52.30;99482.63;4882073;29;20056;-69
2023/04/05 00:06:29;;;;;;;20.23;7.75;;;;;;;15.04;52.75;99477.00;4913586;29;20433;-69
2023/04/05 00:08:56;;;;;;;23.45;8.45;;;;;;;14.66;52.84;99488.94;4932913;29;20066;-68
2023/04/05 00:11:22;;;;;;;22.50;8.90;;;;;;;14.69;52.83;99476.03;4919926;29;20044;-69
2023/04/05 00:13:48;;;;;;;24.50;8.50;;;;;;;14.71;52.92;99489.22;4932495;29;20146;-69
2023/04/05 00:16:16;;;;;;;12.35;7.88;;;;;;;14.82;52.92;99489.53;4932769;29;20138;-69
2023/04/05 00:18:48;;;;;;;17.85;8.70;;;;;;;14.69;53.16;99492.06;4932531;29;20067;-69
2023/04/05 00:21:16;;;;;;;20.15;7.97;;;;;;;14.86;53.10;99484.66;4906719;29;20600;-69
2023/04/05 00:23:43;;;;;;;15.95;8.20;;;;;;;14.51;53.37;99488.13;4903769;29;20397;-69
2023/04/05 00:26:11;;;;;;;18.75;9.27;;;;;;;14.72;54.03;99486.34;4958317;28;20100;-69
2023/04/05 00:28:42;;;;;;;18.13;8.75;;;;;;;14.55;53.67;99484.06;4960022;28;20766;-69
2023/04/05 00:31:09;;;;;;;23.70;8.23;;;;;;;14.55;53.66;99490.25;4959915;28;20080;-70
2023/04/05 00:33:37;;;;;;;19.80;7.97;;;;;;;14.46;53.47;99490.53;4959113;28;20148;-69
2023/04/05 00:36:13;;;;;;;19.00;8.95;;;;;;;14.93;54.18;99477.50;4992109;28;20056;-69
2023/04/05 00:38:40;;;;;;;18.85;8.02;;;;;;;14.58;54.08;99486.34;4991184;28;20042;-69
2023/04/05 00:41:05;;;;;;;18.10;8.15;;;;;;;14.43;53.92;99491.75;4977198;28;20050;-71
2023/04/05 00:43:34;;;;;;;23.63;8.55;;;;;;;14.48;54.14;99486.69;4977134;28;20085;-70
2023/04/05 00:46:06;;;;;;;15.60;8.77;;;;;;;14.76;54.58;99492.16;4978046;28;20042;-70
2023/04/05 00:48:33;;;;;;;18.98;8.77;;;;;;;14.55;54.56;99490.25;4993248;28;20388;-69
2023/04/05 00:51:03;;;;;;;19.08;8.43;;;;;;;14.45;54.32;99495.03;4945164;28;20061;-70
2023/04/05 00:53:31;;;;;;;17.30;7.93;;;;;;;14.39;54.54;99501.13;4961561;28;20058;-69
2023/04/05 00:55:58;;;;;;;21.05;8.30;;;;;;;14.37;54.08;99505.00;4980297;28;20058;-69
2023/04/05 00:58:24;;;;;;;16.65;8.57;;;;;;;14.33;54.28;99501.88;4980399;28;20068;-68
2023/04/05 01:01:17;;;;;;;21.77;8.18;;;;;;;14.70;54.99;99503.56;4981109;28;20073;-68
2023/04/05 01:03:52;;;;;;;17.90;8.13;;;;;;;14.56;54.86;99501.78;5016009;28;20383;-68
2023/04/05 01:06:24;;;;;;;15.15;7.90;;;;;;;14.57;54.83;99488.22;4984075;28;20077;-69
2023/04/05 01:09:31;;;;;;;15.55;8.10;;;;;;;14.77;54.65;99504.50;5000012;28;20092;-69
2023/04/05 01:12:02;;;;;;;21.30;8.85;;;;;;;14.53;55.09;99502.97;5016282;28;20060;-71
2023/04/05 01:14:28;;;;;;;19.10;8.30;;;;;;;14.15;54.95;99505.88;4984181;28;20372;-70
2023/04/05 01:16:57;;;;;;;19.27;8.45;;;;;;;14.14;54.94;99504.25;4983490;28;20540;-69
2023/04/05 01:19:28;;;;;;;19.40;8.82;;;;;;;14.46;55.38;99491.38;4984013;28;20484;-69
2023/04/05 01:22:12;;;;;;;;;;;;;;;14.77;54.53;99504.50;4983982;28;20041;-69
2023/04/05 01:25:05;;;;;;;25.00;9.02;;;;;;;14.52;55.62;99489.78;4983391;28;20394;-69
2023/04/05 01:27:58;;;;;;;18.80;9.25;;;;;;;14.63;55.55;99497.31;5019076;28;20055;-70
2023/04/05 01:30:34;;;;;;;15.73;8.77;;;;;;;14.44;55.86;99500.56;5019258;28;20071;-70
2023/04/05 01:33:01;;;;;;;23.08;8.55;;;;;;;13.88;55.96;99503.84;5006462;28;20057;-69
2023/04/05 01:35:38;;;;;;;22.73;9.07;;;;;;;14.26;56.40;99492.94;5014045;28;20125;-69
2023/04/05 01:38:06;;;;;;;16.13;8.93;;;;;;;14.13;56.64;99500.72;5013535;28;20069;-70
2023/04/05 01:40:34;;;;;;;18.48;8.48;;;;;;;13.88;56.81;99501.19;4997207;28;20057;-70
2023/04/05 01:43:01;;;;;;;20.23;9.18;;;;;;;13.88;56.85;99499.34;4997600;28;20525;-69
2023/04/05 01:45:28;;;;;;;23.95;9.05;;;;;;;13.78;56.92;99498.78;4998078;28;20113;-70
2023/04/05 01:47:54;;;;;;;20.33;8.70;;;;;;;13.73;56.92;99500.34;4997289;28;20132;-70
2023/04/05 01:50:21;;;;;;;15.32;9.10;;;;;;;13.70;57.02;99498.03;4981718;28;20208;-70
2023/04/05 01:52:48;;;;;;;20.23;9.77;;;;;;;13.68;57.40;99494.72;4997166;28;20103;-70
2023/04/05 01:55:15;;;;;;;16.30;9.50;;;;;;;13.64;57.55;99498.75;4976209;28;20097;-70
2023/04/05 01:57:41;;;;;;;16.05;8.32;;;;;;;13.58;57.83;99497.63;4937447;29;20059;-69
2023/04/05 02:00:09;;;;;;;15.80;8.77;;;;;;;13.65;57.96;99487.91;4918855;29;20075;-70
2023/04/05 02:02:40;;;;;;;24.55;9.27;;;;;;;13.64;57.91;99491.56;4915334;29;20454;-70
2023/04/05 02:05:07;;;;;;;18.27;8.38;;;;;;;13.64;58.05;99510.25;4915343;29;20158;-70
2023/04/05 02:07:34;;;;;;;20.65;10.20;;;;;;;13.55;58.06;99498.81;4899595;29;20056;-70
2023/04/05 02:10:01;;;;;;;17.42;9.73;;;;;;;13.56;57.89;99502.34;4899775;29;20111;-70
2023/04/05 02:12:27;;;;;;;23.50;9.25;;;;;;;13.51;58.12;99508.19;4898659;29;20060;-69
2023/04/05 02:14:53;;;;;;;18.17;9.43;;;;;;;13.52;58.09;99506.34;4899470;29;20835;-69
2023/04/05 02:17:22;;;;;;;22.70;10.00;;;;;;;13.49;58.16;99502.22;4899539;29;20143;-69
2023/04/05 02:19:51;;;;;;;24.13;10.05;;;;;;;13.85;58.30;99518.41;4899395;29;20067;-69
2023/04/05 02:22:20;;;;;;;18.05;9.55;;;;;;;13.87;58.30;99518.22;4915014;29;20079;-71
2023/04/05 02:24:45;;;;;;;28.35;10.50;;;;;;;13.51;58.18;99521.53;4892929;29;20144;-69
2023/04/05 02:27:12;;;;;;;21.15;9.77;;;;;;;13.52;58.03;99527.69;4834108;29;20157;-70
2023/04/05 02:29:38;;;;;;;26.25;10.52;;;;;;;13.48;58.05;99523.75;4875689;29;20080;-68
2023/04/05 02:32:04;;;;;;;20.25;10.00;;;;;;;13.48;58.18;99527.22;4877309;29;20488;-70
2023/04/05 02:34:32;;;;;;;20.80;10.02;;;;;;;13.41;58.25;99528.94;4877486;29;20056;-68
2023/04/05 02:36:58;;;;;;;19.60;9.82;;;;;;;13.38;58.25;99531.97;4861430;29;20125;-69
2023/04/05 02:39:25;;;;;;;22.50;10.30;;;;;;;13.36;58.51;99533.97;4885030;29;20071;-69
2023/04/05 02:41:51;;;;;;;22.45;10.35;;;;;;;13.33;58.34;99534.34;4914643;29;20487;-68
2023/04/05 02:44:17;;;;;;;22.15;9.98;;;;;;;13.39;58.58;99535.47;4934387;28;20173;-67
2023/04/05 02:46:44;;;;;;;20.38;10.13;;;;;;;13.25;58.77;99530.91;4939794;28;20055;-69
2023/04/05 02:49:11;;;;;;;24.88;9.88;;;;;;;13.18;59.09;99535.28;4976751;28;20061;-69
2023/04/05 02:51:37;;;;;;;22.55;10.02;;;;;;;13.17;59.40;99539.81;4943042;28;20050;-69
2023/04/05 02:54:07;;;;;;;17.10;9.80;;;;;;;13.21;59.18;99537.59;4959021;28;20058;-69
2023/04/05 02:56:35;;;;;;;28.27;10.27;;;;;;;13.18;58.99;99538.78;4992808;28;20053;-70
2023/04/05 02:59:04;;;;;;;23.23;9.75;;;;;;;13.15;59.33;99539.16;5001654;28;20048;-69
2023/04/05 03:01:31;;;;;;;22.65;9.85;;;;;;;13.14;59.22;99550.81;4981403;28;20056;-69
2023/04/05 03:03:57;;;;;;;26.52;9.00;;;;;;;13.11;59.49;99551.19;4978829;28;20143;-68
2023/04/05 03:06:23;;;;;;;20.98;9.75;;;;;;;13.10;59.66;99544.16;4976887;28;20050;-69
2023/04/05 03:08:50;;;;;;;21.30;9.55;;;;;;;13.10;59.43;99549.50;4948089;28;20065;-68
2023/04/05 03:11:20;;;;;;;25.13;9.80;;;;;;;13.11;59.62;99548.50;4980415;28;20067;-68
2023/04/05 03:13:50;;;;;;;20.27;10.02;;;;;;;13.13;59.47;99549.16;4978102;28;20041;-68
2023/04/05 03:16:33;;;;;;;22.75;10.35;;;;;;;13.15;59.00;99548.97;4964821;28;20148;-68
2023/04/05 03:19:06;;;;;;;20.63;8.98;;;;;;;13.39;58.89;99551.50;4965968;28;20045;-69
2023/04/05 03:21:36;;;;;;;21.40;10.00;;;;;;;13.42;58.44;99556.47;4981955;28;20095;-69
2023/04/05 03:24:09;;;;;;;19.00;9.05;;;;;;;13.31;57.97;99552.38;4982066;28;20057;-69
2023/04/05 03:26:39;;;;;;;17.70;8.87;;;;;;;13.38;58.15;99560.47;4981732;28;20063;-69
2023/04/05 03:29:05;;;;;;;23.65;9.45;;;;;;;13.37;57.58;99558.84;4996481;28;20567;-69
2023/04/05 03:31:35;;;;;;;21.63;9.93;;;;;;;13.40;57.42;99558.47;4978205;28;20064;-68
2023/04/05 03:34:05;;;;;;;19.67;9.48;;;;;;;13.44;57.13;99559.75;4971213;28;20045;-68
2023/04/05 03:36:44;;;;;;;20.63;9.95;;;;;;;13.45;56.84;99564.94;4996809;28;20132;-69
2023/04/05 03:39:30;;;;;;;20.10;9.70;;;;;;;13.46;56.86;99569.28;5011503;28;20057;-68
2023/04/05 03:41:56;;;;;;;14.57;9.48;;;;;;;13.56;56.61;99572.53;4976953;28;20641;-68
2023/04/05 03:44:23;;;;;;;17.00;9.50;;;;;;;13.91;56.55;99571.06;4980546;28;20132;-68
2023/04/05 03:46:49;;;;;;;20.45;9.43;;;;;;;13.61;56.07;99577.31;5011652;28;20396;-67
2023/04/05 03:49:15;;;;;;;24.58;9.50;;;;;;;13.63;55.78;99577.97;4996788;28;20045;-67
2023/04/05 03:51:41;;;;;;;24.00;8.90;;;;;;;13.70;55.60;99586.09;4996837;28;20049;-68
2023/04/05 03:54:06;;;;;;;18.65;8.70;;;;;;;13.76;55.22;99588.06;4997040;28;20132;-69
2023/04/05 03:56:34;;;;;;;17.23;9.75;;;;;;;13.75;54.96;99584.53;4981627;28;20067;-67
2023/04/05 03:59:09;;;;;;;16.13;8.15;;;;;;;13.82;54.83;99590.00;4996676;28;20064;-68
2023/04/05 04:01:35;;;;;;;17.95;8.68;;;;;;;13.89;54.46;99589.09;4943019;28;20141;-67
2023/04/05 04:04:03;;;;;;;22.83;9.45;;;;;;;13.96;54.31;99594.56;4959255;28;20046;-68
2023/04/05 04:06:30;;;;;;;24.27;9.93;;;;;;;14.04;54.42;99595.31;4959973;28;20108;-67
2023/04/05 04:08:58;;;;;;;25.02;9.45;;;;;;;14.06;54.18;99603.13;4960119;28;20057;-68
2023/04/05 04:11:24;;;;;;;16.65;8.48;;;;;;;14.19;53.88;99596.16;4972488;28;20084;-68
2023/04/05 04:13:51;;;;;;;22.35;9.15;;;;;;;14.27;53.00;99604.13;4956774;28;20453;-67
2023/04/05 04:16:27;;;;;;;21.98;9.10;;;;;;;14.38;52.92;99610.84;4974402;28;20461;-70
2023/04/05 04:18:53;;;;;;;23.10;9.43;;;;;;;14.38;52.40;99603.69;4989163;28;20054;-70
2023/04/05 04:21:31;;;;;;;29.50;11.48;;;;;;;14.56;52.94;99609.50;4960020;28;20072;-69
2023/04/05 04:24:21;;;;;;;31.58;9.88;;;;;;;14.62;52.50;99605.28;4973428;28;20062;-69
2023/04/05 04:27:13;;;;;;;14.73;7.75;;;;;;;14.76;51.62;99609.78;4979019;28;20049;-69
2023/04/05 04:30:04;;;;;;;19.10;8.35;;;;;;;15.01;51.17;99613.81;4969603;28;20057;-69
2023/04/05 04:32:50;;;;;;;25.45;9.10;;;;;;;15.18;50.79;99613.41;5016867;28;20049;-68
2023/04/05 04:35:33;;;;;;;;;;;;;;;15.96;49.47;99617.97;5018366;28;20055;-69
2023/04/05 04:38:17;;;;;;;26.05;8.57;;;;;;;15.55;49.39;99617.75;5019240;28;19932;-69
2023/04/05 04:41:10;;;;;;;28.23;8.50;;;;;;;15.56;48.84;99615.94;5000640;28;20111;-68
2023/04/05 04:43:46;;;;;;;19.40;7.97;;;;;;;15.69;48.67;99618.72;4978785;28;20136;-69
2023/04/05 04:46:29;;;;;;;14.23;8.30;;;;;;;15.61;47.89;99626.88;4962204;28;20539;-69
2023/04/05 04:49:04;;;;;;;22.95;8.07;;;;;;;15.71;47.24;99625.56;4965634;28;20480;-73
2023/04/05 04:51:34;;;;;;;21.80;7.82;;;;;;;15.77;46.58;99632.84;4962051;28;20076;-75
2023/04/05 04:54:03;;;;;;;24.75;8.43;;;;;;;15.85;46.50;99638.03;4961892;28;20038;-73
2023/04/05 04:56:28;;;;;;;16.35;8.13;;;;;;;15.98;46.10;99640.00;4961561;28;20050;-73
2023/04/05 04:58:56;;;;;;;21.98;7.75;;;;;;;16.05;45.55;99636.38;4977781;28;20046;-74
2023/04/05 05:01:23;;;;;;;20.00;8.48;;;;;;;16.24;45.44;99634.88;4949347;28;20503;-75
2023/04/05 05:03:50;;;;;;;21.00;6.78;;;;;;;16.50;45.33;99638.63;4962039;28;20041;-75
2023/04/05 05:06:33;;;;;;;24.67;8.38;;;;;;;16.33;44.39;99636.38;4964620;28;20059;-73
2023/04/05 05:09:01;;;;;;;20.80;8.35;;;;;;;16.54;44.20;99647.91;4965021;28;20067;-75
2023/04/05 05:11:29;;;;;;;13.55;8.23;;;;;;;16.41;43.67;99641.63;4969412;28;20527;-76
2023/04/05 05:13:56;;;;;;;16.63;8.05;;;;;;;16.53;43.59;99645.44;5034017;28;20519;-77
2023/04/05 05:16:26;;;;;;;21.02;8.90;;;;;;;16.52;43.46;99639.25;5043409;28;20045;-72
2023/04/05 05:18:53;;;;;;;30.13;7.72;;;;;;;16.78;42.99;99646.66;4983367;28;20081;-72
2023/04/05 05:21:21;;;;;;;19.30;7.63;;;;;;;16.76;42.80;99657.56;4983808;28;20104;-71
2023/04/05 05:23:54;;;;;;;19.80;7.55;;;;;;;16.95;42.54;99647.16;5000706;28;20092;-72
2023/04/05 05:26:20;;;;;;;24.90;6.97;;;;;;;17.09;42.38;99651.56;5004892;28;20057;-72
2023/04/05 05:28:47;;;;;;;21.98;7.55;;;;;;;17.22;41.76;99657.81;4998861;28;20807;-71
2023/04/05 05:31:13;;;;;;;21.17;7.90;;;;;;;17.34;41.43;99658.06;4982053;28;20049;-73
2023/04/05 05:33:39;;;;;;;21.08;7.90;;;;;;;17.49;41.42;99648.03;4982221;28;20048;-73
2023/04/05 05:36:06;;;;;;;21.23;7.82;;;;;;;17.76;41.11;99645.22;4979752;28;20038;-72
2023/04/05 05:38:31;;;;;;;28.23;8.32;;;;;;;17.70;40.21;99646.03;5013106;28;20042;-73
2023/04/05 05:40:57;;;;;;;28.42;7.40;;;;;;;17.81;39.67;99656.19;4999638;28;20531;-72
2023/04/05 05:43:23;;;;;;;26.20;8.30;;;;;;;17.89;39.02;99657.84;4999667;28;20394;-72
2023/04/05 05:45:49;;;;;;;18.85;7.82;;;;;;;17.96;39.17;99666.72;5007307;28;20541;-72
2023/04/05 05:48:16;;;;;;;30.13;7.60;;;;;;;18.16;38.60;99671.13;4982347;28;20041;-73
2023/04/05 05:50:43;;;;;;;24.58;8.07;;;;;;;18.32;39.04;99662.66;4983759;28;20132;-73
2023/04/05 05:53:09;;;;;;;24.02;8.20;;;;;;;18.14;38.65;99669.69;4983497;28;20049;-73
2023/04/05 05:55:36;;;;;;;33.30;8.05;;;;;;;18.41;38.42;99663.28;4982125;28;20060;-73
2023/04/05 05:58:01;;;;;;;32.20;8.70;;;;;;;18.39;37.86;99678.78;4997873;28;20053;-72
2023/04/05 06:00:28;;;;;;;24.55;8.90;;;;;;;18.42;37.73;99671.16;4965950;28;20057;-73
2023/04/05 06:02:54;;;;;;;26.65;8.02;;;;;;;18.46;37.04;99674.25;4997630;28;20503;-73
2023/04/05 06:05:22;;;;;;;20.60;7.72;;;;;;;18.54;36.99;99676.75;4982429;28;20119;-73
2023/04/05 06:07:48;;;;;;;28.30;7.80;;;;;;;18.63;37.06;99672.81;4981785;28;20483;-71
2023/04/05 06:10:14;;;;;;;21.13;7.95;;;;;;;18.66;36.86;99679.63;4955663;28;20074;-73
2023/04/05 06:12:40;;;;;;;21.80;7.72;;;;;;;18.74;36.26;99676.72;4939270;28;20142;-73
2023/04/05 06:15:06;;;;;;;27.30;7.78;;;;;;;18.89;36.17;99678.16;4955645;28;20604;-75
2023/04/05 06:17:33;;;;;;;22.65;7.40;;;;;;;18.88;35.74;99679.16;4939923;28;20043;-75
2023/04/05 06:19:59;;;;;;;25.15;8.02;;;;;;;18.89;35.70;99680.84;4924023;28;20055;-70
2023/04/05 06:22:26;;;;;;;28.17;8.77;;;;;;;18.90;35.58;99682.47;4939513;28;20470;-71
2023/04/05 06:24:52;;;;;;;32.47;7.85;;;;;;;19.04;35.08;99680.56;4938926;28;20485;-74
2023/04/05 06:27:18;;;;;;;22.58;8.38;;;;;;;19.18;35.19;99684.88;4937588;28;20061;-74
2023/04/05 06:29:44;;;;;;;23.92;7.70;;;;;;;19.23;34.77;99690.47;4940459;28;20058;-73
2023/04/05 06:32:10;;;;;;;22.55;8.35;;;;;;;19.38;34.63;99688.38;4940654;28;20559;-74
2023/04/05 06:34:36;;;;;;;26.20;9.18;;;;;;;19.50;34.61;99694.75;4957626;28;20073;-72
2023/04/05 06:37:02;;;;;;;26.73;8.85;;;;;;;19.67;34.27;99704.00;4942096;28;20133;-72
2023/04/05 06:39:28;;;;;;;31.77;8.68;;;;;;;19.86;33.79;99703.09;4974382;28;20042;-73
2023/04/05 06:41:56;;;;;;;22.52;8.25;;;;;;;19.98;33.77;99698.66;5002568;28;20132;-72
2023/04/05 06:44:27;;;;;;;22.83;9.07;;;;;;;20.11;33.12;99710.19;4983483;28;20045;-71
2023/04/05 06:46:53;;;;;;;28.48;8.77;;;;;;;20.42;33.37;99701.25;4982082;28;20052;-71
2023/04/05 06:49:18;;;;;;;25.92;7.72;;;;;;;20.72;32.52;99710.38;5014523;28;20045;-71
2023/04/05 06:51:46;;;;;;;20.95;7.55;;;;;;;20.97;32.12;99692.28;5014503;28;20038;-70
2023/04/05 06:54:12;;;;;;;28.40;8.80;;;;;;;20.93;31.60;99692.91;4982071;28;20059;-70
2023/04/05 06:56:38;;;;;;;38.60;7.95;;;;;;;21.11;31.51;99703.78;4998132;28;20045;-70
2023/04/05 06:59:05;;;;;;;25.95;8.40;;;;;;;21.21;31.29;99695.97;4981121;28;20041;-70
2023/04/05 07:01:31;;;;;;;23.10;8.10;;;;;;;21.31;30.76;99696.31;4982584;28;20083;-71
2023/04/05 07:03:57;;;;;;;17.55;8.23;;;;;;;21.41;31.04;99696.59;4981837;28;20084;-71
2023/04/05 07:06:24;;;;;;;26.65;7.57;;;;;;;21.46;31.22;99702.94;4982121;28;20037;-71
2023/04/05 07:08:51;;;;;;;22.48;8.30;;;;;;;21.54;30.42;99708.06;4941982;28;20153;-71
2023/04/05 07:11:17;;;;;;;19.13;9.32;;;;;;;21.64;30.46;99702.13;4941565;28;20118;-71
2023/04/05 07:13:43;;;;;;;34.95;9.38;;;;;;;21.72;30.30;99709.91;4941295;28;20057;-71
2023/04/05 07:16:10;;;;;;;23.38;8.68;;;;;;;22.13;30.07;99704.59;4957816;28;20053;-71
2023/04/05 07:18:36;;;;;;;29.42;8.80;;;;;;;22.10;30.03;99705.03;4953386;28;20145;-71
2023/04/05 07:21:03;;;;;;;28.50;9.02;;;;;;;22.26;29.74;99698.97;4954213;28;20046;-72
2023/04/05 07:23:30;;;;;;;29.70;9.45;;;;;;;22.30;29.67;99693.91;4953780;28;20282;-72
2023/04/05 07:26:03;;;;;;;17.40;8.75;;;;;;;22.81;29.57;99694.97;4918770;29;20185;-71
2023/04/05 07:28:48;;;;;;;27.60;8.98;;;;;;;22.70;28.75;99701.19;4919392;29;20059;-71
2023/04/05 07:31:15;;;;;;;24.63;9.35;;;;;;;22.96;28.74;99703.44;4919442;29;20051;-71
2023/04/05 07:33:41;;;;;;;28.48;9.30;;;;;;;23.10;28.51;99702.13;4932007;29;20055;-72
2023/04/05 07:36:07;;;;;;;26.70;9.25;;;;;;;23.59;27.66;99697.25;4931605;29;20150;-72
2023/04/05 07:38:33;;;;;;;28.70;10.82;;;;;;;24.22;26.97;99706.91;4931527;29;20055;-72
2023/04/05 07:41:00;;;;;;;25.23;9.40;;;;;;;25.51;25.63;99708.41;4922626;28;20042;-69
2023/04/05 07:43:26;;;;;;;31.40;9.48;;;;;;;26.97;23.89;99713.47;4922212;28;20060;-70
2023/04/05 07:45:59;;;;;;;26.85;8.95;;;;;;;28.19;22.08;99713.75;4936616;28;20342;-70
2023/04/05 07:48:28;;;;;;;31.63;9.35;;;;;;;29.49;20.67;99706.34;4968098;28;20055;-70
2023/04/05 07:50:54;;;;;;;21.58;8.50;;;;;;;30.59;19.30;99701.34;4937597;28;20412;-70
2023/04/05 07:53:20;;;;;;;29.60;8.32;;;;;;;31.59;18.35;99696.81;4952347;28;20047;-70
2023/04/05 07:55:46;;;;;;;28.05;8.60;;;;;;;32.52;17.42;99700.47;4954176;28;20047;-69
2023/04/05 07:58:11;;;;;;;19.92;7.68;;;;;;;32.81;16.66;99709.34;4954271;28;20543;-69
2023/04/05 08:00:37;;;;;;;25.48;8.18;;;;;;;33.52;16.19;99709.69;4922986;28;20065;-70
2023/04/05 08:03:03;;;;;;;32.03;8.60;;;;;;;34.09;15.19;99705.47;4968461;28;20101;-75
2023/04/05 08:05:30;;;;;;;34.00;8.00;;;;;;;35.02;14.48;99699.06;5007247;28;20064;-71
2023/04/05 08:07:56;;;;;;;24.02;8.02;;;;;;;35.75;14.01;99705.53;5013677;28;20485;-70
2023/04/05 08:10:23;;;;;;;22.80;8.15;;;;;;;36.38;13.36;99701.47;4981536;28;20056;-70
2023/04/05 08:12:49;;;;;;;22.52;7.18;;;;;;;36.27;13.18;99702.88;5017200;28;20050;-70
2023/04/05 08:15:15;;;;;;;26.20;7.80;;;;;;;35.91;13.26;99697.66;5001438;28;20449;-70
2023/04/05 08:17:40;;;;;;;19.23;6.80;;;;;;;35.51;13.79;99696.06;5001351;28;20057;-70
2023/04/05 08:20:07;;;;;;;24.73;7.40;;;;;;;35.98;13.42;99709.06;5001022;28;20069;-71
2023/04/05 08:22:33;;;;;;;32.92;7.97;;;;;;;36.22;13.33;99708.56;5001057;28;20049;-74
2023/04/05 08:24:58;;;;;;;22.67;7.43;;;;;;;36.18;12.91;99711.16;4984759;28;20045;-75
2023/04/05 08:27:24;;;;;;;25.30;7.70;;;;;;;36.62;12.91;99710.88;4985021;28;20498;-74
2023/04/05 08:29:52;;;;;;;34.67;7.35;;;;;;;37.55;12.40;99709.00;4984758;28;20045;-74
2023/04/05 08:32:18;;;;;;;29.42;7.55;;;;;;;38.19;11.73;99712.44;5001154;28;20037;-74
2023/04/05 08:34:44;;;;;;;33.47;8.48;;;;;;;38.57;11.23;99700.03;4984742;28;20450;-73
2023/04/05 08:37:10;;;;;;;19.63;6.93;;;;;;;38.67;11.44;99701.59;4984697;28;20460;-73
2023/04/05 08:39:35;;;;;;;29.33;6.53;;;;;;;38.81;11.13;99704.88;5000746;28;20041;-74
2023/04/05 08:42:12;;;;;;;24.23;6.70;;;;;;;40.16;10.22;99707.09;5000608;28;20041;-74
2023/04/05 08:44:39;;;;;;;19.30;6.75;;;;;;;40.52;10.07;99705.38;4984479;28;20048;-73
2023/04/05 08:47:05;;;;;;;35.92;8.07;;;;;;;41.02;9.58;99700.03;4984138;28;20103;-73
2023/04/05 08:49:31;;;;;;;21.90;6.00;;;;;;;41.41;9.26;99708.25;5000418;28;20148;-74
2023/04/05 08:51:59;;;;;;;19.23;6.28;;;;;;;42.11;8.76;99694.41;5016722;28;20041;-73
2023/04/05 08:54:26;;;;;;;21.42;6.68;;;;;;;42.05;8.64;99693.09;4984312;28;20487;-75
2023/04/05 08:56:53;;;;;;;18.60;6.43;;;;;;;42.19;8.64;99690.59;4984345;28;20076;-74
2023/04/05 08:59:19;;;;;;;30.95;6.80;;;;;;;42.32;8.50;99692.91;5000464;28;20037;-75
2023/04/05 09:01:47;;;;;;;23.20;6.22;;;;;;;42.59;8.49;99686.31;4981910;28;20487;-74
2023/04/05 09:04:24;;;;;;;15.30;6.15;;;;;;;43.25;8.11;99697.16;4984241;28;20048;-76
2023/04/05 09:06:51;;;;;;;23.73;5.93;;;;;;;43.37;7.94;99688.56;5000306;28;20045;-75
2023/04/05 09:09:17;;;;;;;22.48;5.88;;;;;;;44.07;7.52;99688.91;4982984;28;20402;-74
2023/04/05 09:11:43;;;;;;;23.15;5.80;;;;;;;42.49;7.91;99686.06;4983353;28;20106;-75
2023/04/05 09:14:10;;;;;;;22.67;6.25;;;;;;;41.60;8.76;99691.63;5016045;28;20429;-76
2023/04/05 09:16:37;;;;;;;31.73;6.82;;;;;;;42.19;8.61;99683.03;4983772;28;20045;-75
2023/04/05 09:19:04;;;;;;;24.08;7.13;;;;;;;42.36;8.20;99691.03;4999999;28;20052;-75
2023/04/05 09:21:56;;;;;;;17.17;5.97;;;;;;;43.04;7.79;99680.00;4999680;28;20178;-76
2023/04/05 09:24:42;;;;;;;26.73;6.97;;;;;;;43.45;7.82;99679.13;5015997;28;20045;-75
2023/04/05 09:27:11;;;;;;;13.98;5.30;;;;;;;43.36;7.64;99680.56;5015955;28;20136;-76
2023/04/05 09:29:38;;;;;;;18.77;5.32;;;;;;;44.00;7.21;99680.41;5032428;28;20041;-77
2023/04/05 09:32:07;;;;;;;25.60;5.80;;;;;;;43.86;7.36;99680.97;4999443;28;20338;-75
2023/04/05 09:34:35;;;;;;;24.88;5.57;;;;;;;44.13;7.26;99674.22;5015930;28;20045;-75
2023/04/05 09:37:03;;;;;;;17.92;5.68;;;;;;;44.39;7.52;99679.78;4983446;28;20048;-75
2023/04/05 09:39:31;;;;;;;26.65;8.15;;;;;;;44.97;7.08;99680.03;4983555;28;20391;-75
2023/04/05 09:42:10;;;;;;;23.38;5.78;;;;;;;44.96;6.89;99672.00;5015598;28;20253;-75
2023/04/05 09:44:51;;;;;;;25.73;5.43;;;;;;;44.50;7.09;99674.28;4983904;28;20042;-76
2023/04/05 09:47:18;;;;;;;20.58;5.38;;;;;;;44.44;7.41;99675.81;4979153;28;20303;-74
2023/04/05 09:49:44;;;;;;;21.88;5.60;;;;;;;44.68;7.13;99666.91;5012205;28;20049;-74
2023/04/05 09:52:18;;;;;;;25.45;5.50;;;;;;;45.84;6.37;99665.19;4963937;28;20049;-75
2023/04/05 09:54:44;;;;;;;22.38;5.20;;;;;;;45.45;6.41;99676.09;5013094;28;20042;-76
2023/04/05 09:57:10;;;;;;;20.55;4.85;;;;;;;45.25;6.34;99674.72;4979927;28;20034;-76
2023/04/05 09:59:39;;;;;;;17.88;5.05;;;;;;;45.30;6.50;99671.56;4979729;28;20046;-76
2023/04/05 10:02:05;;;;;;;28.85;5.53;;;;;;;45.30;6.26;99670.75;4985295;28;20072;-75
2023/04/05 10:04:44;;;;;;;13.80;4.22;;;;;;;45.86;6.16;99668.38;4999145;28;20127;-76
2023/04/05 10:07:12;;;;;;;16.77;4.07;;;;;;;45.25;6.30;99674.72;4962193;28;20466;-76
2023/04/05 10:09:39;;;;;;;15.30;4.65;;;;;;;45.48;5.96;99668.91;4962385;28;20058;-75
2023/04/05 10:12:13;;;;;;;14.77;4.45;;;;;;;45.69;6.29;99663.41;4977697;28;20131;-75
2023/04/05 10:14:39;;;;;;;18.75;4.63;;;;;;;45.62;6.29;99669.00;4978992;28;20092;-75
2023/04/05 10:17:42;;;;;;;19.40;4.50;;;;;;;46.11;5.73;99663.69;4962687;28;20057;-76
2023/04/05 10:20:13;;;;;;;14.18;4.30;;;;;;;46.44;6.00;99671.88;4990502;28;20144;-76
2023/04/05 10:23:02;;;;;;;22.63;4.63;;;;;;;46.67;5.85;99658.31;5010603;28;20058;-76
2023/04/05 10:25:43;;;;;;;16.02;4.38;;;;;;;46.69;5.49;99663.53;5010997;28;20137;-77
2023/04/05 10:28:12;;;;;;;21.35;4.35;;;;;;;45.71;6.03;99661.84;4994314;28;20056;-76
2023/04/05 10:30:48;;;;;;;28.98;4.32;;;;;;;45.28;6.48;99659.09;4962417;28;20144;-77
2023/04/05 10:33:35;;;;;;;18.70;4.20;;;;;;;45.74;5.94;99651.84;5009722;28;20136;-76
2023/04/05 10:36:22;;;;;;;15.20;4.13;;;;;;;45.16;6.42;99650.97;4946047;28;20393;-76
2023/04/05 10:39:13;;;;;;;26.40;3.83;;;;;;;44.27;6.67;99651.97;4989216;28;20061;-75
2023/04/05 10:41:42;;;;;;;13.23;3.90;;;;;;;44.70;6.80;99651.31;4998464;28;20542;-76
2023/04/05 10:44:09;;;;;;;13.17;3.77;;;;;;;44.80;6.53;99649.81;4982147;28;20045;-76
2023/04/05 10:46:37;;;;;;;22.15;4.45;;;;;;;44.86;6.56;99644.69;4981863;28;20286;-76
2023/04/05 10:49:15;;;;;;;14.15;4.13;;;;;;;44.67;6.32;99654.09;4998186;28;20049;-77
2023/04/05 10:51:43;;;;;;;9.10;3.58;;;;;;;44.13;6.93;99645.38;4998014;28;20434;-77
2023/04/05 10:54:09;;;;;;;18.77;4.43;;;;;;;43.52;7.12;99645.69;4997915;28;20068;-77
2023/04/05 10:56:36;;;;;;;21.48;4.35;;;;;;;43.38;7.37;99648.22;4997855;28;20479;-75
2023/04/05 10:59:02;;;;;;;13.15;3.58;;;;;;;43.22;7.49;99639.19;4981981;28;20501;-76
2023/04/05 11:01:28;;;;;;;15.85;4.03;;;;;;;43.16;7.52;99638.69;4981542;28;20057;-76
2023/04/05 11:03:55;;;;;;;17.98;4.70;;;;;;;42.65;7.79;99640.13;4981349;28;20045;-76
2023/04/05 11:06:22;;;;;;;20.05;5.50;;;;;;;42.43;7.52;99628.91;4998077;28;20041;-78
2023/04/05 11:08:53;;;;;;;16.45;4.00;;;;;;;42.31;7.71;99643.84;5014097;28;20102;-76
2023/04/05 11:11:21;;;;;;;20.17;5.38;;;;;;;41.81;7.87;99634.72;4997493;28;20045;-76
2023/04/05 11:13:57;;;;;;;18.05;4.03;;;;;;;41.26;7.88;99633.81;5013858;28;20471;-78
2023/04/05 11:16:38;;;;;;;15.98;3.90;;;;;;;40.49;8.25;99628.13;4981738;28;20059;-77
2023/04/05 11:19:06;;;;;;;10.35;3.33;;;;;;;40.11;8.92;99621.06;5013989;28;20776;-77
2023/04/05 11:21:32;;;;;;;8.52;3.47;;;;;;;39.42;9.13;99620.50;4997583;28;20045;-77
2023/04/05 11:24:05;;;;;;;12.10;3.70;;;;;;;39.53;9.17;99618.03;4998092;28;20057;-78
2023/04/05 11:26:46;;;;;;;18.30;3.35;;;;;;;39.89;9.04;99617.97;5030393;28;20391;-79
2023/04/05 11:29:14;;;;;;;14.18;3.35;;;;;;;39.33;9.09;99605.06;5030222;28;20100;-79
2023/04/05 11:31:58;;;;;;;11.40;3.70;;;;;;;39.09;9.49;99608.63;5013806;28;20475;-80
2023/04/05 11:34:25;;;;;;;9.60;3.50;;;;;;;37.63;10.15;99602.81;4977215;28;20042;-80
2023/04/05 11:36:52;;;;;;;17.80;3.78;;;;;;;36.38;10.95;99610.94;5027568;28;20136;-78
2023/04/05 11:39:18;;;;;;;12.25;3.67;;;;;;;35.24;11.58;99596.81;5027914;28;20065;-76